Time;durP1;ratioP1;P1;durP2;ratioP2;P2;SDS_P1;SDS_P2;PMS_P1;PMS_P2;Temp;Humidity;BMP_temperature;BMP_pressure;BME280_temperature;BME280_humidity;BME280_pressure;Samples;Min_cycle;Max_cycle;Signal;HPM_P1;HPM_P2
2021/05/09 00:02:09;;;;;;;5.90;2.22;;;17.30;56.00;;;;;;5043707;28;20060;-71
2021/05/09 00:04:35;;;;;;;5.15;2.15;;;17.20;56.00;;;;;;5035774;28;20489;-71
2021/05/09 00:07:01;;;;;;;5.72;2.20;;;17.20;56.20;;;;;;5039385;28;20028;-72
2021/05/09 00:09:26;;;;;;;4.97;2.13;;;17.30;56.30;;;;;;5023606;28;20030;-72
2021/05/09 00:11:52;;;;;;;4.68;1.77;;;17.20;56.10;;;;;;5025378;28;20028;-72
2021/05/09 00:14:17;;;;;;;5.28;2.20;;;17.30;56.20;;;;;;5011954;28;20042;-72
2021/05/09 00:16:43;;;;;;;5.07;1.90;;;17.20;56.20;;;;;;5015558;28;20026;-72
2021/05/09 00:19:09;;;;;;;4.65;1.90;;;17.20;56.10;;;;;;5049994;28;20025;-71
2021/05/09 00:21:35;;;;;;;5.70;2.08;;;17.20;56.10;;;;;;5050605;28;20053;-72
2021/05/09 00:24:00;;;;;;;6.22;2.10;;;17.20;56.30;;;;;;5051304;28;20079;-71
2021/05/09 00:26:26;;;;;;;4.57;2.05;;;17.20;56.20;;;;;;5047609;28;20033;-71
2021/05/09 00:28:51;;;;;;;5.28;2.20;;;17.20;56.30;;;;;;5031500;28;20051;-71
2021/05/09 00:31:17;;;;;;;3.83;1.95;;;17.20;56.20;;;;;;5031972;28;20032;-73
2021/05/09 00:33:43;;;;;;;5.85;2.00;;;17.20;56.40;;;;;;5043182;28;20021;-71
2021/05/09 00:36:08;;;;;;;4.45;1.77;;;17.20;56.40;;;;;;5043302;28;20029;-72
2021/05/09 00:38:34;;;;;;;6.57;2.15;;;17.20;56.40;;;;;;5036607;28;20052;-72
2021/05/09 00:41:00;;;;;;;6.10;2.20;;;17.20;56.40;;;;;;5050924;28;20017;-71
2021/05/09 00:43:26;;;;;;;6.28;2.05;;;17.20;56.70;;;;;;5035930;28;20134;-74
2021/05/09 00:45:51;;;;;;;4.38;2.00;;;17.20;56.50;;;;;;5026064;28;20588;-73
2021/05/09 00:48:18;;;;;;;4.63;2.10;;;17.20;56.60;;;;;;5032561;28;20036;-72
2021/05/09 00:50:44;;;;;;;7.45;1.90;;;17.20;56.50;;;;;;5032446;28;20103;-71
2021/05/09 00:53:13;;;;;;;4.30;1.77;;;17.20;56.50;;;;;;5033917;28;20075;-71
2021/05/09 00:55:40;;;;;;;7.72;2.00;;;17.20;56.70;;;;;;5051529;28;20431;-71
2021/05/09 00:58:07;;;;;;;4.95;1.88;;;17.10;56.50;;;;;;5046353;28;20105;-71
2021/05/09 01:00:32;;;;;;;4.10;1.67;;;17.20;56.70;;;;;;5036238;28;20032;-71
2021/05/09 01:03:01;;;;;;;5.32;1.95;;;17.10;56.60;;;;;;5032349;28;20021;-71
2021/05/09 01:05:27;;;;;;;5.15;1.90;;;17.10;57.20;;;;;;5050652;28;20036;-72
2021/05/09 01:07:54;;;;;;;4.25;1.55;;;17.10;56.80;;;;;;5050415;28;20029;-71
2021/05/09 01:10:20;;;;;;;4.30;1.85;;;17.10;56.80;;;;;;5050973;28;20381;-72
2021/05/09 01:12:46;;;;;;;5.03;1.80;;;17.10;56.70;;;;;;5032845;28;20025;-69
2021/05/09 01:15:12;;;;;;;4.65;1.63;;;17.10;56.60;;;;;;5031659;28;20515;-70
2021/05/09 01:17:37;;;;;;;4.15;1.67;;;17.10;56.90;;;;;;5012996;28;20033;-72
2021/05/09 01:20:29;;;;;;;4.68;1.70;;;17.10;56.90;;;;;;5032098;28;20493;-72
2021/05/09 01:22:55;;;;;;;5.93;1.70;;;17.10;56.80;;;;;;5034137;28;20029;-71
2021/05/09 01:25:20;;;;;;;3.33;1.70;;;17.10;56.90;;;;;;5032424;28;20032;-73
2021/05/09 01:27:46;;;;;;;3.55;1.60;;;17.10;56.90;;;;;;5050956;28;20037;-70
2021/05/09 01:30:13;;;;;;;5.35;1.73;;;17.10;57.20;;;;;;5030575;28;20090;-72
2021/05/09 01:32:39;;;;;;;4.38;1.75;;;17.10;57.00;;;;;;5050642;28;20519;-71
2021/05/09 01:35:05;;;;;;;4.60;2.00;;;17.00;57.10;;;;;;5031820;28;20032;-71
2021/05/09 01:37:30;;;;;;;5.32;1.52;;;17.10;57.00;;;;;;5050096;28;20087;-72
2021/05/09 01:39:56;;;;;;;4.05;1.60;;;17.00;57.30;;;;;;5032611;28;20041;-72
2021/05/09 01:42:21;;;;;;;3.97;1.60;;;17.00;57.20;;;;;;5032262;28;20044;-72
2021/05/09 01:44:55;;;;;;;4.25;1.73;;;17.00;57.20;;;;;;5049940;28;20035;-70
2021/05/09 01:47:21;;;;;;;4.80;1.88;;;17.00;57.10;;;;;;5032548;28;20025;-72
2021/05/09 01:49:48;;;;;;;4.97;1.55;;;17.00;56.90;;;;;;5050565;28;20029;-72
2021/05/09 01:52:14;;;;;;;4.68;1.80;;;17.00;57.20;;;;;;5044055;28;20029;-72
2021/05/09 01:54:39;;;;;;;4.60;1.90;;;17.00;57.60;;;;;;5038026;28;20026;-71
2021/05/09 01:57:05;;;;;;;4.15;1.60;;;17.00;57.20;;;;;;5030731;28;20033;-72
2021/05/09 01:59:30;;;;;;;5.25;1.77;;;17.00;57.40;;;;;;5041801;28;20112;-71
2021/05/09 02:01:56;;;;;;;11.35;1.80;;;17.00;57.50;;;;;;5038071;28;20025;-71
2021/05/09 02:04:22;;;;;;;6.35;1.92;;;17.00;57.40;;;;;;5041759;28;20052;-72
2021/05/09 02:06:47;;;;;;;3.63;1.77;;;17.00;57.40;;;;;;5050579;28;20499;-72
2021/05/09 02:09:13;;;;;;;6.05;1.92;;;17.00;57.50;;;;;;5036462;28;20035;-72
2021/05/09 02:11:38;;;;;;;8.10;1.85;;;17.00;57.50;;;;;;5032223;28;20040;-70
2021/05/09 02:14:04;;;;;;;4.25;1.83;;;17.00;57.40;;;;;;5035234;28;20060;-72
2021/05/09 02:16:30;;;;;;;5.20;1.60;;;16.90;57.40;;;;;;5029851;28;20022;-69
2021/05/09 02:18:55;;;;;;;6.25;1.58;;;16.90;57.30;;;;;;5034886;28;20376;-72
2021/05/09 02:21:21;;;;;;;4.28;1.70;;;16.90;57.60;;;;;;5044721;28;20080;-71
2021/05/09 02:23:46;;;;;;;2.95;1.42;;;16.90;57.50;;;;;;5028570;28;20520;-72
2021/05/09 02:26:12;;;;;;;5.00;1.70;;;16.90;57.60;;;;;;5046099;28;20075;-70
2021/05/09 02:28:37;;;;;;;4.18;1.60;;;16.90;57.60;;;;;;5051321;28;20109;-71
2021/05/09 02:31:03;;;;;;;5.60;1.70;;;16.90;57.50;;;;;;5028922;28;20025;-72
2021/05/09 02:33:28;;;;;;;3.58;1.63;;;16.90;57.50;;;;;;5043603;28;20017;-71
2021/05/09 02:35:54;;;;;;;4.93;1.80;;;16.90;57.60;;;;;;5048072;28;20025;-72
2021/05/09 02:38:19;;;;;;;5.68;1.73;;;16.90;57.80;;;;;;5043279;28;20481;-73
2021/05/09 02:40:45;;;;;;;3.72;1.70;;;16.90;57.70;;;;;;5052720;28;20106;-72
2021/05/09 02:43:15;;;;;;;3.80;1.70;;;16.90;57.70;;;;;;5046511;28;20081;-71
2021/05/09 02:45:41;;;;;;;3.45;1.50;;;16.90;57.80;;;;;;5034438;28;20033;-71
2021/05/09 02:48:06;;;;;;;4.10;1.70;;;16.90;57.80;;;;;;5032553;28;20037;-74
2021/05/09 02:50:32;;;;;;;4.65;1.50;;;16.80;57.80;;;;;;5039273;28;20026;-70
2021/05/09 02:52:58;;;;;;;5.57;1.63;;;16.80;57.80;;;;;;5047196;28;20137;-71
2021/05/09 02:55:23;;;;;;;4.78;1.63;;;16.80;57.90;;;;;;5032146;28;20071;-70
2021/05/09 02:57:49;;;;;;;4.45;1.40;;;16.80;57.70;;;;;;5030440;28;20108;-72
2021/05/09 03:00:15;;;;;;;5.47;1.65;;;16.80;57.90;;;;;;5041311;28;20087;-71
2021/05/09 03:02:40;;;;;;;3.58;1.52;;;16.80;57.80;;;;;;5044674;28;20531;-72
2021/05/09 03:05:07;;;;;;;5.93;1.73;;;16.80;57.90;;;;;;5050271;28;20056;-71
2021/05/09 03:07:33;;;;;;;5.43;1.63;;;16.80;58.00;;;;;;5047206;28;20047;-72
2021/05/09 03:09:58;;;;;;;4.63;1.42;;;16.80;57.80;;;;;;5031217;28;22141;-72
2021/05/09 03:12:23;;;;;;;4.72;1.70;;;16.80;57.90;;;;;;5033671;28;20366;-72
2021/05/09 03:14:49;;;;;;;3.53;1.58;;;16.80;57.90;;;;;;5051416;28;20043;-72
2021/05/09 03:17:15;;;;;;;3.55;1.65;;;16.80;57.90;;;;;;5034342;28;20060;-71
2021/05/09 03:19:40;;;;;;;3.33;1.50;;;16.80;58.00;;;;;;5032141;28;20041;-73
2021/05/09 03:22:06;;;;;;;3.83;1.58;;;16.70;58.00;;;;;;5033087;28;20033;-70
2021/05/09 03:24:33;;;;;;;2.50;1.40;;;16.70;58.10;;;;;;5050914;28;20025;-72
2021/05/09 03:26:59;;;;;;;4.47;1.40;;;16.80;58.20;;;;;;5013427;28;20032;-72
2021/05/09 03:29:24;;;;;;;4.82;1.80;;;16.70;58.20;;;;;;5020691;28;20018;-72
2021/05/09 03:31:50;;;;;;;4.82;1.55;;;16.70;58.20;;;;;;5033213;28;20048;-72
2021/05/09 03:34:15;;;;;;;3.88;1.88;;;16.70;58.20;;;;;;5034039;28;20060;-71
2021/05/09 03:36:41;;;;;;;3.30;1.40;;;16.70;58.10;;;;;;5036834;28;20027;-72
2021/05/09 03:39:07;;;;;;;3.60;1.70;;;16.70;58.20;;;;;;5045126;28;20068;-69
2021/05/09 03:41:32;;;;;;;3.72;1.50;;;16.70;58.30;;;;;;5050519;28;20048;-71
2021/05/09 03:43:58;;;;;;;3.88;1.70;;;16.70;58.20;;;;;;5038025;28;20072;-72
2021/05/09 03:46:23;;;;;;;5.30;1.88;;;16.70;58.20;;;;;;5030266;28;20060;-71
2021/05/09 03:48:49;;;;;;;9.23;2.00;;;16.60;58.40;;;;;;5031644;28;20117;-72
2021/05/09 03:51:15;;;;;;;3.60;1.70;;;16.70;58.40;;;;;;5040473;28;20045;-72
2021/05/09 03:53:40;;;;;;;2.38;1.27;;;16.70;58.50;;;;;;5046708;28;20074;-73
2021/05/09 03:56:06;;;;;;;5.72;1.70;;;16.70;58.50;;;;;;5053746;28;20032;-71
2021/05/09 03:58:32;;;;;;;3.45;1.33;;;16.70;58.30;;;;;;5072115;28;20039;-72
2021/05/09 04:00:57;;;;;;;5.65;1.58;;;16.70;58.60;;;;;;5054861;28;20033;-71
2021/05/09 04:03:24;;;;;;;3.80;1.50;;;16.70;58.40;;;;;;5052181;28;20618;-71
2021/05/09 04:05:51;;;;;;;3.92;1.63;;;16.70;58.40;;;;;;5033398;28;20032;-72
2021/05/09 04:08:22;;;;;;;3.90;1.50;;;16.60;58.20;;;;;;5052283;28;20048;-72
2021/05/09 04:10:49;;;;;;;4.25;1.50;;;16.70;58.50;;;;;;5036735;28;20035;-72
2021/05/09 04:13:15;;;;;;;3.10;1.50;;;16.70;58.30;;;;;;5051757;28;20029;-71
2021/05/09 04:15:41;;;;;;;3.97;1.33;;;16.70;58.20;;;;;;5034098;28;20021;-72
2021/05/09 04:18:07;;;;;;;3.00;1.40;;;16.70;58.40;;;;;;5052380;28;20051;-72
2021/05/09 04:20:33;;;;;;;4.47;1.75;;;16.70;58.00;;;;;;5050917;28;20036;-72
2021/05/09 04:23:10;;;;;;;3.45;1.60;;;16.70;58.00;;;;;;5036213;28;20036;-72
2021/05/09 04:25:35;;;;;;;2.63;1.52;;;16.60;58.10;;;;;;5044552;28;20423;-71
2021/05/09 04:28:01;;;;;;;3.13;1.50;;;16.60;58.30;;;;;;5051225;28;20033;-71
2021/05/09 04:30:26;;;;;;;3.40;1.50;;;16.70;58.30;;;;;;5034027;28;20021;-72
2021/05/09 04:33:03;;;;;;;3.70;1.40;;;16.70;58.20;;;;;;5051623;28;20083;-71
2021/05/09 04:35:30;;;;;;;5.40;1.38;;;16.60;58.30;;;;;;5050519;28;20093;-71
2021/05/09 04:37:56;;;;;;;2.47;1.40;;;16.70;58.10;;;;;;5052015;28;20029;-71
2021/05/09 04:40:22;;;;;;;3.47;1.52;;;16.70;58.30;;;;;;5022200;28;20021;-70
2021/05/09 04:42:48;;;;;;;2.90;1.30;;;16.70;58.30;;;;;;5050935;28;20036;-72
2021/05/09 04:45:14;;;;;;;4.75;1.50;;;16.60;58.30;;;;;;5050853;28;20025;-72
2021/05/09 04:47:40;;;;;;;3.78;1.30;;;16.60;58.60;;;;;;5033626;28;20109;-72
2021/05/09 04:50:07;;;;;;;3.40;1.60;;;16.60;58.60;;;;;;5050969;28;20025;-71
2021/05/09 04:52:33;;;;;;;3.80;1.40;;;16.70;58.50;;;;;;5033124;28;20476;-70
2021/05/09 04:54:58;;;;;;;3.30;1.30;;;16.70;58.50;;;;;;5026257;28;20025;-71
2021/05/09 04:57:24;;;;;;;4.78;1.20;;;16.60;58.30;;;;;;5050539;28;20025;-71
2021/05/09 04:59:49;;;;;;;2.92;1.42;;;16.70;58.30;;;;;;5033405;28;20029;-72
2021/05/09 05:02:15;;;;;;;3.80;1.25;;;16.70;58.10;;;;;;5050996;28;20052;-72
2021/05/09 05:04:41;;;;;;;2.85;1.40;;;16.70;58.20;;;;;;5032345;28;20059;-71
2021/05/09 05:07:06;;;;;;;3.20;1.35;;;16.70;58.30;;;;;;5050742;28;20033;-73
2021/05/09 05:09:32;;;;;;;2.85;1.20;;;16.80;58.50;;;;;;5035163;28;20025;-72
2021/05/09 05:11:57;;;;;;;2.15;1.17;;;16.80;58.00;;;;;;5041818;28;20509;-72
2021/05/09 05:14:23;;;;;;;4.78;1.20;;;16.80;57.90;;;;;;5050394;28;20137;-72
2021/05/09 05:16:49;;;;;;;4.78;1.50;;;16.80;57.70;;;;;;5033137;28;20037;-72
2021/05/09 05:19:14;;;;;;;3.30;1.42;;;16.80;57.90;;;;;;5050776;28;20108;-72
2021/05/09 05:21:40;;;;;;;3.30;1.23;;;16.90;58.10;;;;;;5049824;28;20036;-72
2021/05/09 05:24:08;;;;;;;4.65;1.50;;;16.90;57.80;;;;;;5037337;28;20033;-71
2021/05/09 05:26:33;;;;;;;2.55;1.30;;;16.90;57.60;;;;;;5030912;28;20018;-71
2021/05/09 05:28:59;;;;;;;6.45;1.50;;;17.00;57.60;;;;;;5041825;28;20083;-72
2021/05/09 05:31:24;;;;;;;2.85;1.30;;;17.00;57.30;;;;;;5032557;28;20381;-72
2021/05/09 05:33:50;;;;;;;3.53;1.10;;;17.10;57.50;;;;;;5050742;28;20061;-72
2021/05/09 05:36:16;;;;;;;2.70;1.10;;;17.10;57.30;;;;;;5031677;28;20033;-72
2021/05/09 05:38:41;;;;;;;4.43;1.05;;;17.20;57.20;;;;;;5038909;28;20531;-72
2021/05/09 05:41:07;;;;;;;3.47;1.38;;;17.20;57.10;;;;;;5017661;28;20024;-69
2021/05/09 05:43:32;;;;;;;3.40;1.30;;;17.30;56.80;;;;;;5032112;28;20116;-72
2021/05/09 05:45:59;;;;;;;4.50;1.33;;;17.30;56.90;;;;;;5032463;28;20044;-71
2021/05/09 05:48:26;;;;;;;5.15;1.35;;;17.40;57.20;;;;;;5050111;28;20025;-72
2021/05/09 05:50:52;;;;;;;3.58;1.33;;;17.50;56.60;;;;;;5050018;28;20496;-72
2021/05/09 05:53:20;;;;;;;2.05;1.10;;;17.50;56.80;;;;;;5047647;28;20033;-70
2021/05/09 05:55:46;;;;;;;3.50;1.13;;;17.70;57.80;;;;;;5049637;28;20017;-72
2021/05/09 05:58:12;;;;;;;2.88;1.30;;;17.70;57.80;;;;;;5049618;28;20029;-72
2021/05/09 06:00:38;;;;;;;3.53;1.27;;;17.80;58.10;;;;;;5049665;28;20075;-70
2021/05/09 06:03:03;;;;;;;1.77;1.20;;;17.90;59.10;;;;;;5049536;28;20029;-72
2021/05/09 06:05:29;;;;;;;4.85;1.38;;;18.00;58.90;;;;;;5049141;28;20035;-70
2021/05/09 06:07:55;;;;;;;3.55;1.58;;;18.10;57.80;;;;;;5048583;28;20021;-71
2021/05/09 06:10:20;;;;;;;3.88;1.50;;;18.20;59.10;;;;;;5049578;28;20023;-72
2021/05/09 06:12:46;;;;;;;5.57;1.42;;;18.30;59.30;;;;;;5032098;28;20162;-71
2021/05/09 06:15:11;;;;;;;4.93;1.40;;;18.40;59.50;;;;;;5032215;28;20029;-73
2021/05/09 06:17:37;;;;;;;3.35;1.25;;;18.40;60.00;;;;;;5032403;28;20032;-72
2021/05/09 06:20:05;;;;;;;3.15;1.10;;;18.50;58.90;;;;;;5049952;28;20033;-72
2021/05/09 06:22:30;;;;;;;3.75;1.30;;;18.50;59.00;;;;;;5049403;28;20155;-73
2021/05/09 06:24:56;;;;;;;4.57;1.27;;;18.60;58.60;;;;;;5049883;28;20107;-72
2021/05/09 06:27:21;;;;;;;4.15;1.27;;;18.70;58.40;;;;;;5049554;28;20036;-72
2021/05/09 06:29:47;;;;;;;4.10;1.48;;;18.80;58.90;;;;;;5032509;28;20025;-72
2021/05/09 06:32:12;;;;;;;3.47;1.33;;;18.90;59.00;;;;;;5027479;28;20021;-71
2021/05/09 06:34:42;;;;;;;1.65;1.10;;;19.00;58.40;;;;;;5047955;28;20029;-73
2021/05/09 06:37:08;;;;;;;3.22;1.30;;;19.00;58.30;;;;;;5041907;28;20485;-72
2021/05/09 06:39:33;;;;;;;4.22;1.30;;;19.10;58.20;;;;;;5025806;28;20063;-72
2021/05/09 06:42:00;;;;;;;2.90;1.30;;;19.20;58.10;;;;;;5044219;28;20040;-71
2021/05/09 06:44:32;;;;;;;4.43;1.25;;;19.30;57.60;;;;;;5049406;28;20515;-72
2021/05/09 06:46:59;;;;;;;4.07;1.35;;;19.30;57.20;;;;;;5048753;28;20033;-72
2021/05/09 06:49:25;;;;;;;4.57;1.45;;;19.40;56.60;;;;;;5039982;28;20027;-73
2021/05/09 06:51:50;;;;;;;3.78;1.15;;;19.40;56.00;;;;;;5024175;28;20025;-72
2021/05/09 06:54:16;;;;;;;10.23;1.35;;;19.50;56.30;;;;;;5029649;28;20030;-72
2021/05/09 06:56:41;;;;;;;3.58;1.30;;;19.60;55.80;;;;;;5053902;28;20094;-71
2021/05/09 06:59:07;;;;;;;3.72;1.30;;;19.70;55.40;;;;;;5049075;28;20050;-75
2021/05/09 07:01:33;;;;;;;3.92;1.20;;;19.80;55.30;;;;;;5049154;28;20029;-69
2021/05/09 07:03:59;;;;;;;3.45;1.30;;;19.80;54.70;;;;;;5048716;28;20393;-72
2021/05/09 07:06:24;;;;;;;4.53;1.42;;;19.80;54.10;;;;;;5048765;28;20159;-71
2021/05/09 07:08:50;;;;;;;3.30;1.20;;;19.90;54.80;;;;;;5031113;28;20025;-71
2021/05/09 07:11:15;;;;;;;3.00;1.20;;;20.00;53.80;;;;;;5048800;28;20021;-71
2021/05/09 07:13:41;;;;;;;4.55;1.15;;;20.00;53.80;;;;;;5026924;28;20025;-70
2021/05/09 07:16:07;;;;;;;3.55;1.40;;;20.10;53.60;;;;;;5032841;28;20378;-73
2021/05/09 07:18:33;;;;;;;4.45;1.40;;;20.20;53.20;;;;;;5050597;28;20096;-73
2021/05/09 07:21:01;;;;;;;6.90;1.35;;;20.20;53.60;;;;;;5048710;28;20028;-72
2021/05/09 07:23:27;;;;;;;7.93;1.60;;;20.30;53.90;;;;;;5035032;28;20026;-72
2021/05/09 07:25:54;;;;;;;5.32;1.27;;;20.40;53.50;;;;;;5048980;28;20484;-72
2021/05/09 07:28:20;;;;;;;6.85;1.75;;;20.40;52.50;;;;;;5033876;28;20028;-73
2021/05/09 07:30:48;;;;;;;5.22;1.58;;;20.50;52.90;;;;;;5034213;28;20130;-70
2021/05/09 07:33:14;;;;;;;8.48;1.70;;;20.60;52.70;;;;;;5052472;28;20029;-74
2021/05/09 07:35:41;;;;;;;8.00;1.30;;;20.70;52.80;;;;;;5051847;28;20021;-75
2021/05/09 07:38:08;;;;;;;3.80;1.20;;;20.80;53.40;;;;;;5052477;28;20029;-74
2021/05/09 07:40:34;;;;;;;3.15;1.30;;;20.80;50.00;;;;;;5051494;28;20035;-69
2021/05/09 07:42:59;;;;;;;5.35;1.50;;;20.70;49.30;;;;;;5050234;28;20025;-73
2021/05/09 07:45:25;;;;;;;7.25;1.40;;;20.60;50.20;;;;;;5052193;28;20534;-66
2021/05/09 07:47:51;;;;;;;4.88;1.20;;;20.60;50.30;;;;;;5024646;28;20040;-67
2021/05/09 07:50:18;;;;;;;9.30;1.50;;;20.70;50.10;;;;;;5044821;28;20037;-66
2021/05/09 07:52:45;;;;;;;18.38;1.90;;;20.80;50.30;;;;;;5041086;28;20163;-70
2021/05/09 07:55:11;;;;;;;15.30;1.70;;;21.00;50.40;;;;;;5012879;28;20022;-70
2021/05/09 07:57:37;;;;;;;16.30;2.50;;;21.10;49.60;;;;;;5027595;28;20034;-76
2021/05/09 08:00:07;;;;;;;21.75;3.40;;;21.20;50.10;;;;;;5018987;28;20532;-76
2021/05/09 08:02:33;;;;;;;20.45;4.35;;;21.30;50.50;;;;;;5009615;28;20793;-77
2021/05/09 08:04:59;;;;;;;12.50;3.35;;;21.50;53.10;;;;;;5007576;28;20025;-74
2021/05/09 08:07:24;;;;;;;13.90;3.53;;;21.40;48.00;;;;;;5027110;28;20029;-76
2021/05/09 08:09:50;;;;;;;12.65;3.17;;;21.30;48.50;;;;;;5008832;28;20132;-75
2021/05/09 08:12:15;;;;;;;11.00;3.05;;;21.20;49.50;;;;;;5025033;28;20104;-70
2021/05/09 08:14:41;;;;;;;12.18;3.17;;;21.40;48.90;;;;;;5029632;28;20060;-73
2021/05/09 08:17:06;;;;;;;9.02;3.22;;;21.50;48.40;;;;;;5016300;28;20053;-77
2021/05/09 08:19:32;;;;;;;7.78;3.08;;;21.50;48.60;;;;;;5006901;28;20121;-70
2021/05/09 08:21:57;;;;;;;7.88;2.72;;;21.60;48.80;;;;;;5014023;28;20029;-69
2021/05/09 08:24:23;;;;;;;10.23;2.88;;;21.50;48.50;;;;;;5032059;28;20036;-67
2021/05/09 08:26:49;;;;;;;14.40;2.90;;;21.70;48.80;;;;;;4992049;28;20025;-67
2021/05/09 08:29:14;;;;;;;12.00;2.78;;;21.90;49.20;;;;;;5009078;28;20025;-67
2021/05/09 08:31:40;;;;;;;15.77;2.83;;;22.10;49.00;;;;;;5023213;28;20473;-65
2021/05/09 08:34:05;;;;;;;13.68;2.90;;;22.10;48.10;;;;;;5005307;28;20473;-68
2021/05/09 08:36:31;;;;;;;24.50;3.88;;;22.20;47.70;;;;;;5024353;28;20037;-65
2021/05/09 08:38:56;;;;;;;36.25;7.35;;;22.20;47.90;;;;;;5023933;28;20084;-64
2021/05/09 08:41:24;;;;;;;31.60;5.53;;;22.10;47.40;;;;;;5000543;28;20033;-67
2021/05/09 08:43:49;;;;;;;35.78;5.63;;;22.10;47.40;;;;;;5008841;28;20106;-67
2021/05/09 08:46:19;;;;;;;35.15;6.53;;;22.10;47.40;;;;;;5007271;28;20033;-67
2021/05/09 08:48:47;;;;;;;50.30;8.52;;;22.00;47.50;;;;;;5034370;28;20028;-66
2021/05/09 08:51:13;;;;;;;33.80;6.57;;;21.90;47.90;;;;;;5020499;28;20097;-66
2021/05/09 08:53:39;;;;;;;21.30;4.55;;;22.00;48.10;;;;;;5004343;28;20104;-66
2021/05/09 08:56:04;;;;;;;38.63;6.00;;;22.10;48.40;;;;;;5044307;28;20017;-66
2021/05/09 08:58:30;;;;;;;23.88;4.75;;;22.10;48.30;;;;;;5044535;28;20480;-66
2021/05/09 09:00:55;;;;;;;21.80;4.20;;;22.10;48.20;;;;;;5044860;28;20634;-66
2021/05/09 09:03:21;;;;;;;22.33;4.50;;;22.00;47.90;;;;;;5043116;28;20029;-66
2021/05/09 09:05:50;;;;;;;21.35;4.40;;;21.90;48.00;;;;;;5044658;28;20501;-64
2021/05/09 09:08:16;;;;;;;18.88;4.80;;;22.00;48.10;;;;;;5032659;28;20037;-64
2021/05/09 09:10:44;;;;;;;17.02;3.05;;;22.00;48.20;;;;;;5042676;28;20044;-64
2021/05/09 09:13:25;;;;;;;20.92;3.63;;;21.90;47.80;;;;;;5045012;28;20079;-64
2021/05/09 09:15:55;;;;;;;16.52;3.50;;;21.90;48.00;;;;;;5042599;28;20025;-63
2021/05/09 09:18:31;;;;;;;27.50;4.13;;;22.00;48.40;;;;;;5026696;28;20411;-64
2021/05/09 09:21:18;;;;;;;14.85;3.83;;;22.10;47.70;;;;;;5036398;28;20133;-68
2021/05/09 09:23:45;;;;;;;19.58;4.00;;;22.10;47.20;;;;;;5024833;28;20420;-71
2021/05/09 09:26:30;;;;;;;19.48;3.55;;;22.10;48.00;;;;;;5044712;28;20127;-64
2021/05/09 09:28:56;;;;;;;9.75;2.35;;;22.10;47.70;;;;;;5024579;28;20032;-65
2021/05/09 09:31:34;;;;;;;9.57;2.33;;;22.10;48.40;;;;;;5043488;28;20103;-64
2021/05/09 09:34:00;;;;;;;7.82;1.90;;;22.40;47.80;;;;;;5044053;28;20117;-66
2021/05/09 09:36:26;;;;;;;7.90;1.85;;;22.60;46.70;;;;;;5024953;28;20135;-64
2021/05/09 09:38:51;;;;;;;5.05;1.70;;;22.60;46.40;;;;;;5043415;28;20025;-65
2021/05/09 09:41:22;;;;;;;8.68;1.88;;;22.50;46.40;;;;;;5044068;28;20060;-65
2021/05/09 09:44:20;;;;;;;7.03;1.90;;;22.60;47.10;;;;;;5043014;28;20040;-64
2021/05/09 09:46:53;;;;;;;4.78;1.38;;;22.50;46.40;;;;;;5012980;28;20032;-65
2021/05/09 09:49:30;;;;;;;3.45;1.23;;;22.30;46.90;;;;;;5041510;28;20066;-65
2021/05/09 09:52:01;;;;;;;3.28;1.27;;;22.20;47.30;;;;;;5024377;28;20075;-64
2021/05/09 09:54:42;;;;;;;3.10;1.20;;;22.20;47.20;;;;;;5042215;28;20059;-64
2021/05/09 09:57:10;;;;;;;;;;;22.20;47.00;;;;;;5025401;28;20064;-63
2021/05/09 09:59:36;;;;;;;2.92;1.23;;;22.20;47.70;;;;;;5025867;28;20430;-65
2021/05/09 10:02:04;;;;;;;3.72;1.52;;;22.20;49.40;;;;;;5023685;28;20390;-65
2021/05/09 10:04:29;;;;;;;4.82;1.30;;;22.30;47.80;;;;;;5028323;28;20071;-66
2021/05/09 10:06:55;;;;;;;3.42;1.27;;;22.20;48.10;;;;;;5031648;28;20452;-63
2021/05/09 10:09:21;;;;;;;5.22;1.23;;;22.30;48.20;;;;;;5049517;28;20094;-64
2021/05/09 10:11:47;;;;;;;4.53;1.58;;;22.30;48.20;;;;;;5029289;28;20025;-62
2021/05/09 10:14:13;;;;;;;1.77;1.20;;;22.30;48.90;;;;;;5046823;28;20029;-62
2021/05/09 10:16:46;;;;;;;3.08;1.17;;;22.30;49.30;;;;;;5031761;28;20029;-62
2021/05/09 10:19:15;;;;;;;3.40;1.30;;;22.40;49.40;;;;;;5032093;28;20032;-61
2021/05/09 10:21:42;;;;;;;2.67;1.50;;;22.40;49.70;;;;;;5049109;28;20017;-63
2021/05/09 10:24:19;;;;;;;2.90;1.42;;;22.50;50.20;;;;;;5030993;28;20430;-63
2021/05/09 10:26:53;;;;;;;2.35;1.30;;;22.60;49.20;;;;;;5049431;28;20025;-63
2021/05/09 10:29:45;;;;;;;4.35;1.50;;;22.70;48.30;;;;;;5032088;28;20412;-64
2021/05/09 10:32:20;;;;;;;5.90;1.38;;;22.60;48.40;;;;;;5026820;28;20018;-61
2021/05/09 10:34:56;;;;;;;3.92;1.40;;;22.60;48.70;;;;;;5030981;28;20021;-62
2021/05/09 10:37:53;;;;;;;4.65;1.60;;;22.60;49.90;;;;;;5049495;28;20052;-63
2021/05/09 10:40:27;;;;;;;2.78;1.50;;;22.60;49.40;;;;;;5049812;28;20061;-61
2021/05/09 10:43:02;;;;;;;4.00;1.40;;;22.60;49.20;;;;;;5048080;28;20021;-63
2021/05/09 10:45:28;;;;;;;5.05;1.70;;;22.60;50.10;;;;;;5031284;28;20037;-61
2021/05/09 10:48:20;;;;;;;4.22;1.50;;;22.60;49.90;;;;;;5047631;28;20017;-63
2021/05/09 10:50:54;;;;;;;7.72;1.70;;;22.60;49.20;;;;;;5050079;28;20113;-63
2021/05/09 10:53:35;;;;;;;7.00;1.70;;;22.50;50.70;;;;;;5043313;28;20029;-62
2021/05/09 10:56:05;;;;;;;3.40;1.45;;;22.60;50.30;;;;;;5038138;28;20025;-64
2021/05/09 10:58:54;;;;;;;6.85;1.60;;;22.60;50.50;;;;;;5026895;28;20500;-64
2021/05/09 11:01:24;;;;;;;8.23;1.70;;;22.70;51.40;;;;;;5017353;28;20025;-61
2021/05/09 11:03:51;;;;;;;6.20;1.63;;;22.70;51.40;;;;;;5027910;28;20104;-63
2021/05/09 11:06:26;;;;;;;3.75;1.70;;;22.70;51.40;;;;;;4997768;28;20033;-62
2021/05/09 11:09:04;;;;;;;4.65;2.00;;;22.70;51.70;;;;;;5023289;28;20033;-63
2021/05/09 11:11:33;;;;;;;5.28;2.70;;;22.80;52.60;;;;;;5009354;28;20026;-63
2021/05/09 11:13:58;;;;;;;6.28;2.60;;;22.70;52.80;;;;;;4997249;28;20029;-62
2021/05/09 11:16:30;;;;;;;6.72;2.40;;;22.70;51.90;;;;;;5028244;28;20100;-64
2021/05/09 11:19:01;;;;;;;7.13;2.75;;;22.50;52.20;;;;;;5015760;28;20492;-63
2021/05/09 11:21:31;;;;;;;5.00;1.90;;;22.60;52.50;;;;;;5014405;28;20042;-65
2021/05/09 11:24:00;;;;;;;7.35;1.95;;;22.50;52.30;;;;;;5047481;28;20334;-65
2021/05/09 11:26:28;;;;;;;5.70;2.15;;;22.30;52.20;;;;;;5053498;28;20438;-62
2021/05/09 11:29:11;;;;;;;4.25;2.20;;;22.20;53.00;;;;;;5044719;28;20385;-64
2021/05/09 11:31:48;;;;;;;6.68;2.25;;;22.30;52.90;;;;;;5039206;28;20106;-67
2021/05/09 11:34:15;;;;;;;4.55;1.80;;;22.10;53.70;;;;;;5022614;28;20032;-69
2021/05/09 11:36:42;;;;;;;11.32;2.30;;;21.90;53.70;;;;;;5025461;28;20029;-66
2021/05/09 11:39:29;;;;;;;5.97;2.00;;;21.90;54.40;;;;;;4996638;28;20045;-68
2021/05/09 11:42:11;;;;;;;8.05;1.83;;;22.10;54.90;;;;;;5016577;28;20022;-70
2021/05/09 11:44:42;;;;;;;8.85;1.70;;;22.20;55.10;;;;;;5029317;28;20021;-68
2021/05/09 11:47:20;;;;;;;5.10;1.88;;;22.10;57.50;;;;;;5028484;28;20064;-66
2021/05/09 11:49:46;;;;;;;5.07;1.80;;;22.20;55.90;;;;;;5026249;28;20042;-68
2021/05/09 11:52:19;;;;;;;4.65;1.88;;;22.30;55.60;;;;;;5032619;28;20025;-68
2021/05/09 11:54:52;;;;;;;3.17;1.77;;;22.40;56.00;;;;;;5034062;28;20025;-71
2021/05/09 11:57:18;;;;;;;3.38;2.00;;;22.40;56.00;;;;;;5051468;28;20035;-66
2021/05/09 11:59:49;;;;;;;4.95;1.80;;;22.30;57.20;;;;;;5050885;28;20024;-65
2021/05/09 12:02:22;;;;;;;3.90;1.80;;;22.40;56.60;;;;;;5032400;28;20496;-66
2021/05/09 12:04:50;;;;;;;6.38;1.90;;;22.30;58.10;;;;;;5033970;28;20416;-68
2021/05/09 12:07:18;;;;;;;5.68;1.85;;;22.30;57.30;;;;;;5048766;28;20025;-66
2021/05/09 12:09:49;;;;;;;5.07;2.10;;;22.30;57.00;;;;;;5033912;28;20013;-67
2021/05/09 12:12:19;;;;;;;4.70;1.90;;;22.40;57.20;;;;;;5051815;28;20055;-68
2021/05/09 12:14:46;;;;;;;3.70;1.90;;;22.40;57.20;;;;;;5033081;28;20025;-68
2021/05/09 12:17:26;;;;;;;4.00;1.85;;;22.30;57.10;;;;;;5051885;28;20645;-68
2021/05/09 12:19:54;;;;;;;4.05;1.95;;;22.30;57.60;;;;;;5051615;28;20017;-68
2021/05/09 12:22:20;;;;;;;3.60;1.95;;;22.40;58.80;;;;;;5028554;28;20029;-66
2021/05/09 12:24:46;;;;;;;3.17;1.90;;;22.40;58.30;;;;;;5033426;28;20066;-67
2021/05/09 12:27:12;;;;;;;3.58;1.85;;;22.40;58.60;;;;;;5051356;28;20037;-68
2021/05/09 12:29:45;;;;;;;6.05;2.05;;;22.40;58.40;;;;;;5051703;28;20031;-68
2021/05/09 12:32:25;;;;;;;8.10;2.40;;;22.40;57.90;;;;;;5040014;28;20030;-67
2021/05/09 12:35:05;;;;;;;6.32;2.10;;;22.20;57.20;;;;;;5031825;28;20397;-69
2021/05/09 12:37:31;;;;;;;7.82;2.28;;;22.10;57.50;;;;;;5031535;28;20485;-65
2021/05/09 12:40:12;;;;;;;7.85;2.03;;;22.00;57.00;;;;;;5029138;28;20029;-67
2021/05/09 12:43:00;;;;;;;6.90;1.92;;;21.90;57.60;;;;;;5050210;28;20128;-67
2021/05/09 12:45:44;;;;;;;7.30;1.90;;;21.80;56.40;;;;;;5030842;28;20064;-67
2021/05/09 12:48:30;;;;;;;2.70;1.40;;;21.70;56.40;;;;;;5051605;28;20033;-69
2021/05/09 12:51:04;;;;;;;5.22;1.70;;;21.60;55.70;;;;;;5050390;28;20032;-68